sensor_id;sensor_type;location;lat;lon;timestamp;P1;durP1;ratioP1;P2;durP2;ratioP2
69985;SDS011;57328;52.054;5.294;2022-09-27T00:01:46;5.00;;;0.30;;
69985;SDS011;57328;52.054;5.294;2022-09-27T00:04:14;3.30;;;0.43;;
69985;SDS011;57328;52.054;5.294;2022-09-27T00:06:41;5.07;;;0.60;;
69985;SDS011;57328;52.054;5.294;2022-09-27T00:09:08;6.95;;;0.73;;
69985;SDS011;57328;52.054;5.294;2022-09-27T00:11:37;2.22;;;0.50;;
69985;SDS011;57328;52.054;5.294;2022-09-27T00:14:05;2.55;;;0.60;;
69985;SDS011;57328;52.054;5.294;2022-09-27T00:16:33;6.93;;;0.90;;
69985;SDS011;57328;52.054;5.294;2022-09-27T00:19:01;1.60;;;0.50;;
69985;SDS011;57328;52.054;5.294;2022-09-27T00:21:29;2.22;;;0.40;;
69985;SDS011;57328;52.054;5.294;2022-09-27T00:23:57;2.25;;;0.40;;
69985;SDS011;57328;52.054;5.294;2022-09-27T00:26:24;3.22;;;0.50;;
69985;SDS011;57328;52.054;5.294;2022-09-27T00:28:52;3.70;;;0.60;;
69985;SDS011;57328;52.054;5.294;2022-09-27T00:31:21;5.18;;;0.70;;
69985;SDS011;57328;52.054;5.294;2022-09-27T00:33:49;4.38;;;0.60;;
69985;SDS011;57328;52.054;5.294;2022-09-27T00:36:17;3.85;;;0.52;;
69985;SDS011;57328;52.054;5.294;2022-09-27T00:38:45;2.60;;;0.52;;
69985;SDS011;57328;52.054;5.294;2022-09-27T00:41:17;3.25;;;0.60;;
69985;SDS011;57328;52.054;5.294;2022-09-27T00:43:51;4.00;;;0.60;;
69985;SDS011;57328;52.054;5.294;2022-09-27T00:46:30;1.40;;;0.40;;
69985;SDS011;57328;52.054;5.294;2022-09-27T00:49:08;2.63;;;0.43;;
69985;SDS011;57328;52.054;5.294;2022-09-27T00:51:37;3.35;;;0.45;;
69985;SDS011;57328;52.054;5.294;2022-09-27T00:54:06;5.90;;;0.70;;
69985;SDS011;57328;52.054;5.294;2022-09-27T00:56:35;2.95;;;0.50;;
69985;SDS011;57328;52.054;5.294;2022-09-27T00:59:08;3.65;;;0.43;;
69985;SDS011;57328;52.054;5.294;2022-09-27T01:01:37;2.42;;;0.40;;
69985;SDS011;57328;52.054;5.294;2022-09-27T01:04:12;1.65;;;0.57;;
69985;SDS011;57328;52.054;5.294;2022-09-27T01:06:40;1.35;;;0.40;;
69985;SDS011;57328;52.054;5.294;2022-09-27T01:09:07;3.92;;;0.50;;
69985;SDS011;57328;52.054;5.294;2022-09-27T01:14:07;1.17;;;0.50;;
69985;SDS011;57328;52.054;5.294;2022-09-27T01:22:10;1.83;;;0.47;;
69985;SDS011;57328;52.054;5.294;2022-09-27T01:32:32;3.40;;;0.60;;
69985;SDS011;57328;52.054;5.294;2022-09-27T01:35:09;3.33;;;0.77;;
69985;SDS011;57328;52.054;5.294;2022-09-27T01:37:45;2.35;;;0.50;;
69985;SDS011;57328;52.054;5.294;2022-09-27T01:40:21;5.57;;;0.85;;
69985;SDS011;57328;52.054;5.294;2022-09-27T01:43:04;4.20;;;0.90;;
69985;SDS011;57328;52.054;5.294;2022-09-27T01:45:33;5.90;;;0.90;;
69985;SDS011;57328;52.054;5.294;2022-09-27T01:48:09;5.97;;;0.85;;
69985;SDS011;57328;52.054;5.294;2022-09-27T01:50:39;2.72;;;0.50;;
69985;SDS011;57328;52.054;5.294;2022-09-27T01:53:09;2.28;;;0.50;;
69985;SDS011;57328;52.054;5.294;2022-09-27T01:55:38;3.10;;;0.50;;
69985;SDS011;57328;52.054;5.294;2022-09-27T01:58:09;3.10;;;0.60;;
69985;SDS011;57328;52.054;5.294;2022-09-27T02:00:38;2.45;;;0.45;;
69985;SDS011;57328;52.054;5.294;2022-09-27T02:03:11;5.10;;;0.50;;
69985;SDS011;57328;52.054;5.294;2022-09-27T02:05:46;4.85;;;0.68;;
69985;SDS011;57328;52.054;5.294;2022-09-27T02:08:18;3.55;;;0.77;;
69985;SDS011;57328;52.054;5.294;2022-09-27T02:10:46;3.30;;;0.70;;
69985;SDS011;57328;52.054;5.294;2022-09-27T02:13:16;5.25;;;0.70;;
69985;SDS011;57328;52.054;5.294;2022-09-27T02:19:33;4.55;;;0.73;;
69985;SDS011;57328;52.054;5.294;2022-09-27T02:21:30;1.85;;;0.57;;
69985;SDS011;57328;52.054;5.294;2022-09-27T02:23:59;2.42;;;0.82;;
69985;SDS011;57328;52.054;5.294;2022-09-27T02:31:42;5.15;;;0.70;;
69985;SDS011;57328;52.054;5.294;2022-09-27T02:34:14;3.47;;;0.45;;
69985;SDS011;57328;52.054;5.294;2022-09-27T02:36:42;5.00;;;0.85;;
69985;SDS011;57328;52.054;5.294;2022-09-27T02:39:10;3.72;;;0.70;;
69985;SDS011;57328;52.054;5.294;2022-09-27T02:41:37;3.15;;;0.50;;
69985;SDS011;57328;52.054;5.294;2022-09-27T02:44:06;3.70;;;0.52;;
69985;SDS011;57328;52.054;5.294;2022-09-27T02:51:59;2.78;;;0.60;;
69985;SDS011;57328;52.054;5.294;2022-09-27T03:02:32;5.72;;;0.80;;
69985;SDS011;57328;52.054;5.294;2022-09-27T03:05:02;4.35;;;0.88;;
69985;SDS011;57328;52.054;5.294;2022-09-27T03:07:30;5.55;;;0.88;;
69985;SDS011;57328;52.054;5.294;2022-09-27T03:09:58;4.28;;;0.88;;
69985;SDS011;57328;52.054;5.294;2022-09-27T03:12:25;6.32;;;1.05;;
69985;SDS011;57328;52.054;5.294;2022-09-27T03:14:56;2.67;;;0.63;;
69985;SDS011;57328;52.054;5.294;2022-09-27T03:17:23;5.47;;;1.02;;
69985;SDS011;57328;52.054;5.294;2022-09-27T03:19:51;4.15;;;0.60;;
69985;SDS011;57328;52.054;5.294;2022-09-27T03:22:18;6.63;;;0.85;;
69985;SDS011;57328;52.054;5.294;2022-09-27T03:24:45;8.85;;;0.95;;
69985;SDS011;57328;52.054;5.294;2022-09-27T03:27:12;8.15;;;0.80;;
69985;SDS011;57328;52.054;5.294;2022-09-27T03:29:39;4.13;;;0.90;;
69985;SDS011;57328;52.054;5.294;2022-09-27T03:32:07;5.07;;;0.85;;
69985;SDS011;57328;52.054;5.294;2022-09-27T03:34:34;8.27;;;1.10;;
69985;SDS011;57328;52.054;5.294;2022-09-27T03:37:01;11.30;;;1.30;;
69985;SDS011;57328;52.054;5.294;2022-09-27T03:39:28;6.53;;;0.70;;
69985;SDS011;57328;52.054;5.294;2022-09-27T03:41:55;10.63;;;1.02;;
69985;SDS011;57328;52.054;5.294;2022-09-27T03:44:23;4.13;;;0.65;;
69985;SDS011;57328;52.054;5.294;2022-09-27T03:46:50;10.30;;;1.13;;
69985;SDS011;57328;52.054;5.294;2022-09-27T03:49:17;7.50;;;0.93;;
69985;SDS011;57328;52.054;5.294;2022-09-27T03:51:44;3.78;;;0.80;;
69985;SDS011;57328;52.054;5.294;2022-09-27T03:54:11;5.78;;;0.70;;
69985;SDS011;57328;52.054;5.294;2022-09-27T03:56:39;4.15;;;0.80;;
69985;SDS011;57328;52.054;5.294;2022-09-27T03:59:06;4.45;;;0.65;;
69985;SDS011;57328;52.054;5.294;2022-09-27T04:01:33;4.28;;;0.70;;
69985;SDS011;57328;52.054;5.294;2022-09-27T04:04:03;4.00;;;0.70;;
69985;SDS011;57328;52.054;5.294;2022-09-27T04:06:36;3.53;;;0.60;;
69985;SDS011;57328;52.054;5.294;2022-09-27T04:09:04;6.22;;;0.77;;
69985;SDS011;57328;52.054;5.294;2022-09-27T04:11:31;6.75;;;0.80;;
69985;SDS011;57328;52.054;5.294;2022-09-27T04:13:58;4.45;;;0.80;;
69985;SDS011;57328;52.054;5.294;2022-09-27T04:16:25;4.13;;;0.80;;
69985;SDS011;57328;52.054;5.294;2022-09-27T04:18:52;9.88;;;1.13;;
69985;SDS011;57328;52.054;5.294;2022-09-27T04:21:20;6.32;;;1.17;;
69985;SDS011;57328;52.054;5.294;2022-09-27T04:23:47;7.05;;;1.35;;
69985;SDS011;57328;52.054;5.294;2022-09-27T04:26:15;6.00;;;0.80;;
69985;SDS011;57328;52.054;5.294;2022-09-27T04:28:42;5.50;;;0.90;;
69985;SDS011;57328;52.054;5.294;2022-09-27T04:31:09;6.65;;;1.10;;
69985;SDS011;57328;52.054;5.294;2022-09-27T04:33:37;7.90;;;1.77;;
69985;SDS011;57328;52.054;5.294;2022-09-27T04:36:04;6.38;;;1.00;;
69985;SDS011;57328;52.054;5.294;2022-09-27T04:39:00;10.90;;;1.20;;
69985;SDS011;57328;52.054;5.294;2022-09-27T04:41:28;4.38;;;0.77;;
69985;SDS011;57328;52.054;5.294;2022-09-27T04:43:55;11.10;;;1.00;;
69985;SDS011;57328;52.054;5.294;2022-09-27T04:46:24;8.50;;;1.00;;
69985;SDS011;57328;52.054;5.294;2022-09-27T04:48:52;8.15;;;1.05;;
69985;SDS011;57328;52.054;5.294;2022-09-27T04:51:19;6.47;;;0.80;;
69985;SDS011;57328;52.054;5.294;2022-09-27T04:53:46;2.92;;;0.73;;
69985;SDS011;57328;52.054;5.294;2022-09-27T04:56:13;5.38;;;0.82;;
69985;SDS011;57328;52.054;5.294;2022-09-27T04:58:41;2.70;;;0.85;;
69985;SDS011;57328;52.054;5.294;2022-09-27T05:01:08;4.18;;;0.90;;
69985;SDS011;57328;52.054;5.294;2022-09-27T05:03:35;4.45;;;0.63;;
69985;SDS011;57328;52.054;5.294;2022-09-27T05:06:03;6.30;;;1.20;;
69985;SDS011;57328;52.054;5.294;2022-09-27T05:08:30;6.40;;;0.70;;
69985;SDS011;57328;52.054;5.294;2022-09-27T05:10:57;6.32;;;0.60;;
69985;SDS011;57328;52.054;5.294;2022-09-27T05:13:24;8.02;;;0.90;;
69985;SDS011;57328;52.054;5.294;2022-09-27T05:15:53;4.68;;;0.80;;
69985;SDS011;57328;52.054;5.294;2022-09-27T05:18:20;5.82;;;1.15;;
69985;SDS011;57328;52.054;5.294;2022-09-27T05:20:47;6.80;;;1.23;;
69985;SDS011;57328;52.054;5.294;2022-09-27T05:23:14;7.03;;;1.00;;
69985;SDS011;57328;52.054;5.294;2022-09-27T05:25:41;7.05;;;1.00;;
69985;SDS011;57328;52.054;5.294;2022-09-27T05:28:08;6.88;;;1.02;;
69985;SDS011;57328;52.054;5.294;2022-09-27T05:30:36;7.97;;;1.25;;
69985;SDS011;57328;52.054;5.294;2022-09-27T05:33:03;6.97;;;1.13;;
69985;SDS011;57328;52.054;5.294;2022-09-27T05:35:30;7.10;;;1.27;;
69985;SDS011;57328;52.054;5.294;2022-09-27T05:37:59;8.90;;;1.38;;
69985;SDS011;57328;52.054;5.294;2022-09-27T05:40:26;9.32;;;1.40;;
69985;SDS011;57328;52.054;5.294;2022-09-27T05:43:06;5.00;;;1.10;;
69985;SDS011;57328;52.054;5.294;2022-09-27T05:45:34;7.38;;;1.25;;
69985;SDS011;57328;52.054;5.294;2022-09-27T05:48:01;6.25;;;1.30;;
69985;SDS011;57328;52.054;5.294;2022-09-27T05:50:29;5.70;;;0.95;;
69985;SDS011;57328;52.054;5.294;2022-09-27T05:52:56;8.65;;;1.45;;
69985;SDS011;57328;52.054;5.294;2022-09-27T05:55:23;3.58;;;1.08;;
69985;SDS011;57328;52.054;5.294;2022-09-27T05:58:00;6.47;;;1.23;;
69985;SDS011;57328;52.054;5.294;2022-09-27T06:00:28;6.20;;;1.20;;
69985;SDS011;57328;52.054;5.294;2022-09-27T06:02:56;6.75;;;1.25;;
69985;SDS011;57328;52.054;5.294;2022-09-27T06:05:24;4.18;;;0.90;;
69985;SDS011;57328;52.054;5.294;2022-09-27T06:07:56;6.63;;;0.90;;
69985;SDS011;57328;52.054;5.294;2022-09-27T06:10:23;2.90;;;1.27;;
69985;SDS011;57328;52.054;5.294;2022-09-27T06:12:51;8.60;;;1.00;;
69985;SDS011;57328;52.054;5.294;2022-09-27T06:15:18;7.20;;;1.10;;
69985;SDS011;57328;52.054;5.294;2022-09-27T06:17:45;4.93;;;1.10;;
69985;SDS011;57328;52.054;5.294;2022-09-27T06:20:12;5.72;;;0.95;;
69985;SDS011;57328;52.054;5.294;2022-09-27T06:22:40;4.45;;;1.20;;
69985;SDS011;57328;52.054;5.294;2022-09-27T06:25:07;4.50;;;0.93;;
69985;SDS011;57328;52.054;5.294;2022-09-27T06:27:34;8.57;;;1.15;;
69985;SDS011;57328;52.054;5.294;2022-09-27T06:30:02;8.77;;;1.00;;
69985;SDS011;57328;52.054;5.294;2022-09-27T06:32:29;5.38;;;1.27;;
69985;SDS011;57328;52.054;5.294;2022-09-27T06:34:57;5.32;;;1.08;;
69985;SDS011;57328;52.054;5.294;2022-09-27T06:37:25;5.32;;;1.15;;
69985;SDS011;57328;52.054;5.294;2022-09-27T06:39:52;6.75;;;1.13;;
69985;SDS011;57328;52.054;5.294;2022-09-27T06:44:48;5.38;;;1.20;;
69985;SDS011;57328;52.054;5.294;2022-09-27T06:47:16;8.07;;;1.13;;
69985;SDS011;57328;52.054;5.294;2022-09-27T06:49:43;2.50;;;1.00;;
69985;SDS011;57328;52.054;5.294;2022-09-27T06:52:11;5.47;;;1.00;;
69985;SDS011;57328;52.054;5.294;2022-09-27T06:54:38;4.30;;;0.98;;
69985;SDS011;57328;52.054;5.294;2022-09-27T06:57:05;5.85;;;1.15;;
69985;SDS011;57328;52.054;5.294;2022-09-27T06:59:32;4.40;;;1.10;;
69985;SDS011;57328;52.054;5.294;2022-09-27T07:02:18;4.55;;;1.10;;
69985;SDS011;57328;52.054;5.294;2022-09-27T07:04:46;6.38;;;1.10;;
69985;SDS011;57328;52.054;5.294;2022-09-27T07:07:13;8.10;;;1.08;;
69985;SDS011;57328;52.054;5.294;2022-09-27T07:09:41;3.75;;;0.85;;
69985;SDS011;57328;52.054;5.294;2022-09-27T07:12:11;6.70;;;1.48;;
69985;SDS011;57328;52.054;5.294;2022-09-27T07:14:39;4.35;;;0.93;;
69985;SDS011;57328;52.054;5.294;2022-09-27T07:17:06;2.58;;;0.70;;
69985;SDS011;57328;52.054;5.294;2022-09-27T07:19:33;4.45;;;0.90;;
69985;SDS011;57328;52.054;5.294;2022-09-27T07:22:01;7.40;;;1.02;;
69985;SDS011;57328;52.054;5.294;2022-09-27T07:24:28;5.15;;;1.27;;
69985;SDS011;57328;52.054;5.294;2022-09-27T07:26:55;3.83;;;0.95;;
69985;SDS011;57328;52.054;5.294;2022-09-27T07:29:22;5.20;;;1.52;;
69985;SDS011;57328;52.054;5.294;2022-09-27T07:31:49;8.70;;;1.33;;
69985;SDS011;57328;52.054;5.294;2022-09-27T07:34:17;5.78;;;1.00;;
69985;SDS011;57328;52.054;5.294;2022-09-27T07:36:44;3.20;;;1.00;;
69985;SDS011;57328;52.054;5.294;2022-09-27T07:39:12;7.50;;;1.30;;
69985;SDS011;57328;52.054;5.294;2022-09-27T07:41:41;6.70;;;1.38;;
69985;SDS011;57328;52.054;5.294;2022-09-27T07:44:08;3.60;;;0.98;;
69985;SDS011;57328;52.054;5.294;2022-09-27T07:46:35;5.88;;;1.33;;
69985;SDS011;57328;52.054;5.294;2022-09-27T07:49:03;6.22;;;1.50;;
69985;SDS011;57328;52.054;5.294;2022-09-27T07:51:30;5.97;;;1.33;;
69985;SDS011;57328;52.054;5.294;2022-09-27T07:53:57;6.07;;;0.98;;
69985;SDS011;57328;52.054;5.294;2022-09-27T07:56:24;7.13;;;1.10;;
69985;SDS011;57328;52.054;5.294;2022-09-27T07:58:51;5.97;;;1.15;;
69985;SDS011;57328;52.054;5.294;2022-09-27T08:01:18;7.13;;;1.10;;
69985;SDS011;57328;52.054;5.294;2022-09-27T08:03:45;9.13;;;1.10;;
69985;SDS011;57328;52.054;5.294;2022-09-27T08:06:12;9.38;;;1.00;;
69985;SDS011;57328;52.054;5.294;2022-09-27T08:08:40;4.80;;;1.50;;
69985;SDS011;57328;52.054;5.294;2022-09-27T08:11:10;4.95;;;0.85;;
69985;SDS011;57328;52.054;5.294;2022-09-27T08:13:43;4.63;;;1.10;;
69985;SDS011;57328;52.054;5.294;2022-09-27T08:16:11;4.65;;;1.00;;
69985;SDS011;57328;52.054;5.294;2022-09-27T08:18:39;8.55;;;1.30;;
69985;SDS011;57328;52.054;5.294;2022-09-27T08:21:06;6.20;;;1.00;;
69985;SDS011;57328;52.054;5.294;2022-09-27T08:23:33;5.63;;;1.10;;
69985;SDS011;57328;52.054;5.294;2022-09-27T08:26:02;5.72;;;1.20;;
69985;SDS011;57328;52.054;5.294;2022-09-27T08:28:29;5.57;;;1.55;;
69985;SDS011;57328;52.054;5.294;2022-09-27T08:30:56;8.52;;;1.65;;
69985;SDS011;57328;52.054;5.294;2022-09-27T08:33:26;4.10;;;1.05;;
69985;SDS011;57328;52.054;5.294;2022-09-27T08:35:59;4.43;;;0.90;;
69985;SDS011;57328;52.054;5.294;2022-09-27T08:38:26;7.63;;;0.90;;
69985;SDS011;57328;52.054;5.294;2022-09-27T08:40:55;6.22;;;1.00;;
69985;SDS011;57328;52.054;5.294;2022-09-27T08:43:38;6.13;;;0.80;;
69985;SDS011;57328;52.054;5.294;2022-09-27T08:46:13;4.53;;;0.80;;
69985;SDS011;57328;52.054;5.294;2022-09-27T08:48:43;2.67;;;0.60;;
69985;SDS011;57328;52.054;5.294;2022-09-27T08:51:15;3.63;;;0.95;;
69985;SDS011;57328;52.054;5.294;2022-09-27T08:53:45;5.30;;;0.70;;
69985;SDS011;57328;52.054;5.294;2022-09-27T08:56:14;5.05;;;0.85;;
69985;SDS011;57328;52.054;5.294;2022-09-27T08:58:50;3.00;;;0.50;;
69985;SDS011;57328;52.054;5.294;2022-09-27T09:01:18;6.55;;;0.90;;
69985;SDS011;57328;52.054;5.294;2022-09-27T09:03:54;4.18;;;0.82;;
69985;SDS011;57328;52.054;5.294;2022-09-27T09:06:24;4.55;;;0.70;;
69985;SDS011;57328;52.054;5.294;2022-09-27T09:11:27;4.55;;;0.70;;
69985;SDS011;57328;52.054;5.294;2022-09-27T09:14:20;4.53;;;0.68;;
69985;SDS011;57328;52.054;5.294;2022-09-27T09:22:04;4.38;;;0.75;;
69985;SDS011;57328;52.054;5.294;2022-09-27T09:27:23;2.00;;;0.60;;
69985;SDS011;57328;52.054;5.294;2022-09-27T09:35:22;4.70;;;0.90;;
69985;SDS011;57328;52.054;5.294;2022-09-27T09:37:55;9.35;;;0.73;;
69985;SDS011;57328;52.054;5.294;2022-09-27T09:40:24;1.77;;;0.50;;
69985;SDS011;57328;52.054;5.294;2022-09-27T09:42:56;2.70;;;0.70;;
69985;SDS011;57328;52.054;5.294;2022-09-27T09:45:32;6.20;;;0.90;;
69985;SDS011;57328;52.054;5.294;2022-09-27T09:48:05;3.42;;;0.90;;
69985;SDS011;57328;52.054;5.294;2022-09-27T09:50:44;4.55;;;1.67;;
69985;SDS011;57328;52.054;5.294;2022-09-27T09:56:03;3.47;;;0.50;;
69985;SDS011;57328;52.054;5.294;2022-09-27T09:58:45;1.20;;;0.50;;
69985;SDS011;57328;52.054;5.294;2022-09-27T10:01:18;1.40;;;0.60;;
69985;SDS011;57328;52.054;5.294;2022-09-27T10:03:46;4.20;;;0.85;;
69985;SDS011;57328;52.054;5.294;2022-09-27T10:06:13;4.68;;;1.05;;
69985;SDS011;57328;52.054;5.294;2022-09-27T10:08:41;2.38;;;0.60;;
69985;SDS011;57328;52.054;5.294;2022-09-27T10:11:15;2.28;;;0.40;;
69985;SDS011;57328;52.054;5.294;2022-09-27T10:13:48;1.77;;;0.40;;
69985;SDS011;57328;52.054;5.294;2022-09-27T10:16:16;1.40;;;0.30;;
69985;SDS011;57328;52.054;5.294;2022-09-27T10:18:44;3.55;;;0.60;;
69985;SDS011;57328;52.054;5.294;2022-09-27T10:21:22;1.98;;;0.40;;
69985;SDS011;57328;52.054;5.294;2022-09-27T10:24:00;2.42;;;0.38;;
69985;SDS011;57328;52.054;5.294;2022-09-27T10:26:30;2.80;;;0.70;;
69985;SDS011;57328;52.054;5.294;2022-09-27T10:28:57;1.98;;;0.40;;
69985;SDS011;57328;52.054;5.294;2022-09-27T10:31:24;4.05;;;0.73;;
69985;SDS011;57328;52.054;5.294;2022-09-27T10:34:15;3.78;;;0.90;;
69985;SDS011;57328;52.054;5.294;2022-09-27T10:36:43;1.65;;;0.60;;
69985;SDS011;57328;52.054;5.294;2022-09-27T10:39:20;2.72;;;0.50;;
69985;SDS011;57328;52.054;5.294;2022-09-27T10:41:47;3.28;;;0.80;;
69985;SDS011;57328;52.054;5.294;2022-09-27T10:44:30;4.35;;;0.73;;
69985;SDS011;57328;52.054;5.294;2022-09-27T10:46:59;1.75;;;0.50;;
69985;SDS011;57328;52.054;5.294;2022-09-27T10:52:01;5.88;;;1.08;;
69985;SDS011;57328;52.054;5.294;2022-09-27T10:54:34;3.15;;;0.50;;
69985;SDS011;57328;52.054;5.294;2022-09-27T10:57:21;3.20;;;0.65;;
69985;SDS011;57328;52.054;5.294;2022-09-27T10:59:51;4.82;;;0.73;;
69985;SDS011;57328;52.054;5.294;2022-09-27T11:02:29;3.47;;;0.70;;
69985;SDS011;57328;52.054;5.294;2022-09-27T11:05:02;2.83;;;0.55;;
69985;SDS011;57328;52.054;5.294;2022-09-27T11:07:29;2.42;;;0.50;;
69985;SDS011;57328;52.054;5.294;2022-09-27T11:09:59;2.92;;;0.60;;
69985;SDS011;57328;52.054;5.294;2022-09-27T11:12:32;4.00;;;1.00;;
69985;SDS011;57328;52.054;5.294;2022-09-27T11:15:02;2.20;;;0.73;;
69985;SDS011;57328;52.054;5.294;2022-09-27T11:17:32;5.45;;;1.27;;
69985;SDS011;57328;52.054;5.294;2022-09-27T11:20:10;5.20;;;0.80;;
69985;SDS011;57328;52.054;5.294;2022-09-27T11:28:14;2.30;;;0.45;;
69985;SDS011;57328;52.054;5.294;2022-09-27T11:41:24;1.73;;;0.50;;
69985;SDS011;57328;52.054;5.294;2022-09-27T11:46:53;4.30;;;0.80;;
69985;SDS011;57328;52.054;5.294;2022-09-27T11:54:43;2.70;;;0.57;;
69985;SDS011;57328;52.054;5.294;2022-09-27T11:57:22;2.85;;;0.95;;
69985;SDS011;57328;52.054;5.294;2022-09-27T12:07:53;4.10;;;0.68;;
69985;SDS011;57328;52.054;5.294;2022-09-27T12:10:22;4.63;;;1.23;;
69985;SDS011;57328;52.054;5.294;2022-09-27T12:12:51;6.68;;;0.82;;
69985;SDS011;57328;52.054;5.294;2022-09-27T12:20:15;1.75;;;0.60;;
69985;SDS011;57328;52.054;5.294;2022-09-27T12:22:55;2.85;;;0.80;;
69985;SDS011;57328;52.054;5.294;2022-09-27T12:25:30;2.63;;;0.60;;
69985;SDS011;57328;52.054;5.294;2022-09-27T12:28:05;3.65;;;1.10;;
69985;SDS011;57328;52.054;5.294;2022-09-27T12:30:36;4.47;;;1.08;;
69985;SDS011;57328;52.054;5.294;2022-09-27T12:35:51;2.50;;;1.05;;
69985;SDS011;57328;52.054;5.294;2022-09-27T12:41:06;5.78;;;1.38;;
69985;SDS011;57328;52.054;5.294;2022-09-27T12:43:42;3.65;;;0.88;;
69985;SDS011;57328;52.054;5.294;2022-09-27T12:46:28;5.47;;;1.10;;
69985;SDS011;57328;52.054;5.294;2022-09-27T12:51:53;4.50;;;1.42;;
69985;SDS011;57328;52.054;5.294;2022-09-27T12:57:03;2.30;;;0.77;;
69985;SDS011;57328;52.054;5.294;2022-09-27T12:59:53;5.88;;;0.95;;
69985;SDS011;57328;52.054;5.294;2022-09-27T13:02:26;3.83;;;0.90;;
69985;SDS011;57328;52.054;5.294;2022-09-27T13:05:43;3.85;;;0.82;;
69985;SDS011;57328;52.054;5.294;2022-09-27T13:13:20;4.97;;;0.60;;
69985;SDS011;57328;52.054;5.294;2022-09-27T13:15:47;1.52;;;0.60;;
69985;SDS011;57328;52.054;5.294;2022-09-27T13:21:04;2.47;;;0.70;;
69985;SDS011;57328;52.054;5.294;2022-09-27T13:31:16;2.42;;;0.50;;
69985;SDS011;57328;52.054;5.294;2022-09-27T13:34:02;3.13;;;0.80;;
69985;SDS011;57328;52.054;5.294;2022-09-27T13:36:43;2.28;;;0.98;;
69985;SDS011;57328;52.054;5.294;2022-09-27T13:44:25;7.35;;;0.90;;
69985;SDS011;57328;52.054;5.294;2022-09-27T13:49:43;2.60;;;0.52;;
69985;SDS011;57328;52.054;5.294;2022-09-27T13:52:18;3.13;;;0.52;;
69985;SDS011;57328;52.054;5.294;2022-09-27T13:54:56;3.08;;;0.80;;
69985;SDS011;57328;52.054;5.294;2022-09-27T14:00:31;1.60;;;0.50;;
69985;SDS011;57328;52.054;5.294;2022-09-27T14:10:51;2.78;;;0.63;;
69985;SDS011;57328;52.054;5.294;2022-09-27T14:13:19;3.22;;;0.70;;
69985;SDS011;57328;52.054;5.294;2022-09-27T14:15:52;6.53;;;1.20;;
69985;SDS011;57328;52.054;5.294;2022-09-27T14:18:29;3.88;;;0.57;;
69985;SDS011;57328;52.054;5.294;2022-09-27T14:21:09;2.05;;;0.60;;
69985;SDS011;57328;52.054;5.294;2022-09-27T14:23:46;2.95;;;1.00;;
69985;SDS011;57328;52.054;5.294;2022-09-27T14:26:33;3.30;;;0.90;;
69985;SDS011;57328;52.054;5.294;2022-09-27T14:29:00;3.72;;;1.00;;
69985;SDS011;57328;52.054;5.294;2022-09-27T14:31:27;2.28;;;0.93;;
69985;SDS011;57328;52.054;5.294;2022-09-27T14:34:13;4.78;;;0.90;;
69985;SDS011;57328;52.054;5.294;2022-09-27T14:36:42;2.08;;;0.70;;
69985;SDS011;57328;52.054;5.294;2022-09-27T14:39:32;3.83;;;0.90;;
69985;SDS011;57328;52.054;5.294;2022-09-27T14:42:16;2.45;;;0.98;;
69985;SDS011;57328;52.054;5.294;2022-09-27T14:44:45;3.80;;;1.33;;
69985;SDS011;57328;52.054;5.294;2022-09-27T14:49:59;9.98;;;4.95;;
69985;SDS011;57328;52.054;5.294;2022-09-27T14:52:28;4.75;;;2.13;;
69985;SDS011;57328;52.054;5.294;2022-09-27T14:55:04;8.20;;;2.80;;
69985;SDS011;57328;52.054;5.294;2022-09-27T14:57:54;6.75;;;1.58;;
69985;SDS011;57328;52.054;5.294;2022-09-27T15:00:26;4.80;;;1.40;;
69985;SDS011;57328;52.054;5.294;2022-09-27T15:02:57;4.90;;;1.90;;
69985;SDS011;57328;52.054;5.294;2022-09-27T15:05:29;5.60;;;1.65;;
69985;SDS011;57328;52.054;5.294;2022-09-27T15:08:04;6.47;;;1.80;;
69985;SDS011;57328;52.054;5.294;2022-09-27T15:10:33;9.18;;;3.63;;
69985;SDS011;57328;52.054;5.294;2022-09-27T15:13:01;9.55;;;2.30;;
69985;SDS011;57328;52.054;5.294;2022-09-27T15:15:36;4.82;;;1.95;;
69985;SDS011;57328;52.054;5.294;2022-09-27T15:18:31;4.40;;;1.80;;
69985;SDS011;57328;52.054;5.294;2022-09-27T15:20:58;4.38;;;2.00;;
69985;SDS011;57328;52.054;5.294;2022-09-27T15:23:39;3.80;;;1.38;;
69985;SDS011;57328;52.054;5.294;2022-09-27T15:31:03;4.88;;;2.45;;
69985;SDS011;57328;52.054;5.294;2022-09-27T15:33:38;8.32;;;2.58;;
69985;SDS011;57328;52.054;5.294;2022-09-27T15:36:17;8.25;;;2.00;;
69985;SDS011;57328;52.054;5.294;2022-09-27T15:39:06;10.13;;;3.20;;
69985;SDS011;57328;52.054;5.294;2022-09-27T15:42:03;7.07;;;2.28;;
69985;SDS011;57328;52.054;5.294;2022-09-27T15:44:38;11.63;;;2.70;;
69985;SDS011;57328;52.054;5.294;2022-09-27T15:47:51;9.55;;;2.20;;
69985;SDS011;57328;52.054;5.294;2022-09-27T15:49:53;8.25;;;3.05;;
69985;SDS011;57328;52.054;5.294;2022-09-27T15:52:41;7.03;;;2.60;;
69985;SDS011;57328;52.054;5.294;2022-09-27T15:55:25;4.47;;;1.80;;
69985;SDS011;57328;52.054;5.294;2022-09-27T15:57:54;7.55;;;1.98;;
69985;SDS011;57328;52.054;5.294;2022-09-27T16:00:24;6.57;;;2.20;;
69985;SDS011;57328;52.054;5.294;2022-09-27T16:02:52;10.80;;;2.53;;
69985;SDS011;57328;52.054;5.294;2022-09-27T16:05:31;6.50;;;3.10;;
69985;SDS011;57328;52.054;5.294;2022-09-27T16:07:58;7.65;;;3.70;;
69985;SDS011;57328;52.054;5.294;2022-09-27T16:10:28;7.38;;;4.25;;
69985;SDS011;57328;52.054;5.294;2022-09-27T16:13:01;6.20;;;2.13;;
69985;SDS011;57328;52.054;5.294;2022-09-27T16:15:38;5.32;;;1.73;;
69985;SDS011;57328;52.054;5.294;2022-09-27T16:18:05;3.45;;;1.83;;
69985;SDS011;57328;52.054;5.294;2022-09-27T16:20:32;4.35;;;1.65;;
69985;SDS011;57328;52.054;5.294;2022-09-27T16:23:00;6.60;;;1.83;;
69985;SDS011;57328;52.054;5.294;2022-09-27T16:25:32;5.95;;;1.35;;
69985;SDS011;57328;52.054;5.294;2022-09-27T16:28:02;3.90;;;1.40;;
69985;SDS011;57328;52.054;5.294;2022-09-27T16:30:30;5.28;;;1.50;;
69985;SDS011;57328;52.054;5.294;2022-09-27T16:32:58;7.95;;;1.70;;
69985;SDS011;57328;52.054;5.294;2022-09-27T16:35:34;7.55;;;1.88;;
69985;SDS011;57328;52.054;5.294;2022-09-27T16:38:10;7.00;;;1.50;;
69985;SDS011;57328;52.054;5.294;2022-09-27T16:40:37;5.38;;;2.00;;
69985;SDS011;57328;52.054;5.294;2022-09-27T16:43:04;6.55;;;1.88;;
69985;SDS011;57328;52.054;5.294;2022-09-27T16:45:33;9.20;;;4.38;;
69985;SDS011;57328;52.054;5.294;2022-09-27T16:48:14;15.35;;;3.97;;
69985;SDS011;57328;52.054;5.294;2022-09-27T16:50:41;6.95;;;2.60;;
69985;SDS011;57328;52.054;5.294;2022-09-27T16:53:32;8.48;;;2.20;;
69985;SDS011;57328;52.054;5.294;2022-09-27T16:56:11;5.30;;;1.80;;
69985;SDS011;57328;52.054;5.294;2022-09-27T16:58:38;5.75;;;1.73;;
69985;SDS011;57328;52.054;5.294;2022-09-27T17:01:05;5.95;;;1.73;;
69985;SDS011;57328;52.054;5.294;2022-09-27T17:03:33;9.13;;;1.77;;
69985;SDS011;57328;52.054;5.294;2022-09-27T17:06:06;8.02;;;2.13;;
69985;SDS011;57328;52.054;5.294;2022-09-27T17:08:36;11.95;;;3.40;;
69985;SDS011;57328;52.054;5.294;2022-09-27T17:11:03;8.07;;;2.50;;
69985;SDS011;57328;52.054;5.294;2022-09-27T17:13:31;7.53;;;3.80;;
69985;SDS011;57328;52.054;5.294;2022-09-27T17:16:04;3.95;;;1.85;;
69985;SDS011;57328;52.054;5.294;2022-09-27T17:18:40;6.60;;;2.50;;
69985;SDS011;57328;52.054;5.294;2022-09-27T17:21:07;8.98;;;3.10;;
69985;SDS011;57328;52.054;5.294;2022-09-27T17:23:35;7.97;;;4.32;;
69985;SDS011;57328;52.054;5.294;2022-09-27T17:26:36;8.10;;;3.67;;
69985;SDS011;57328;52.054;5.294;2022-09-27T17:28:57;13.23;;;4.55;;
69985;SDS011;57328;52.054;5.294;2022-09-27T17:31:26;11.77;;;4.40;;
69985;SDS011;57328;52.054;5.294;2022-09-27T17:33:54;6.45;;;2.50;;
69985;SDS011;57328;52.054;5.294;2022-09-27T17:36:24;10.52;;;2.97;;
69985;SDS011;57328;52.054;5.294;2022-09-27T17:38:51;7.40;;;2.45;;
69985;SDS011;57328;52.054;5.294;2022-09-27T17:41:20;7.35;;;2.30;;
69985;SDS011;57328;52.054;5.294;2022-09-27T17:43:59;6.05;;;2.13;;